Urb Montblanc Gdns, Puerto Rico
Current Conditions -  °F | °C
As of 9:50 AM on Monday 24 Nov 2014 (Local Time) from TJPS Reporting Station
Few Clouds Few Clouds  
Wind Chill: 84°   Ceiling: Unl
Heat Index: 90°   Visibility: 10mi
Dew Point: 72°   Wind: 12mph
Humidity: 66%   Direction: 100°E
Pressure: 30"   Gusts: NA
Location:  18.0306°N, 66.8507°W
Report Text: TJPS 241350Z 10010KT 10SM FEW030 29/22 A3000
Loading
Personal Weather Stations






























Interactive Weather Map New forecast layout! Learn more

10-Day Weather Forecast

Advertisements
Track Severe Weather on mobile